sensor_id;sensor_type;location;lat;lon;timestamp;P1;durP1;ratioP1;P2;durP2;ratioP2
3217;SDS011;1621;49.702;8.618;2022-12-18T00:01:43;41.50;;;25.33;;
3217;SDS011;1621;49.702;8.618;2022-12-18T00:04:15;40.57;;;26.63;;
3217;SDS011;1621;49.702;8.618;2022-12-18T00:06:44;43.00;;;24.33;;
3217;SDS011;1621;49.702;8.618;2022-12-18T00:09:10;37.10;;;22.57;;
3217;SDS011;1621;49.702;8.618;2022-12-18T00:11:38;40.97;;;24.30;;
3217;SDS011;1621;49.702;8.618;2022-12-18T00:14:04;37.43;;;23.40;;
3217;SDS011;1621;49.702;8.618;2022-12-18T00:16:30;40.07;;;22.77;;
3217;SDS011;1621;49.702;8.618;2022-12-18T00:19:00;41.37;;;24.07;;
3217;SDS011;1621;49.702;8.618;2022-12-18T00:21:27;46.43;;;25.20;;
3217;SDS011;1621;49.702;8.618;2022-12-18T00:23:53;37.60;;;22.87;;
3217;SDS011;1621;49.702;8.618;2022-12-18T00:26:21;37.23;;;23.10;;
3217;SDS011;1621;49.702;8.618;2022-12-18T00:28:49;43.63;;;23.43;;
3217;SDS011;1621;49.702;8.618;2022-12-18T00:31:17;38.20;;;23.33;;
3217;SDS011;1621;49.702;8.618;2022-12-18T00:33:43;37.37;;;23.00;;
3217;SDS011;1621;49.702;8.618;2022-12-18T00:36:11;38.77;;;23.37;;
3217;SDS011;1621;49.702;8.618;2022-12-18T00:38:37;34.70;;;22.37;;
3217;SDS011;1621;49.702;8.618;2022-12-18T00:41:04;37.13;;;22.80;;
3217;SDS011;1621;49.702;8.618;2022-12-18T00:43:34;46.93;;;25.80;;
3217;SDS011;1621;49.702;8.618;2022-12-18T00:46:01;39.17;;;22.90;;
3217;SDS011;1621;49.702;8.618;2022-12-18T00:48:27;44.20;;;24.40;;
3217;SDS011;1621;49.702;8.618;2022-12-18T00:50:53;41.60;;;24.33;;
3217;SDS011;1621;49.702;8.618;2022-12-18T00:53:19;43.47;;;25.10;;
3217;SDS011;1621;49.702;8.618;2022-12-18T00:55:46;42.50;;;23.80;;
3217;SDS011;1621;49.702;8.618;2022-12-18T00:58:13;41.60;;;23.77;;
3217;SDS011;1621;49.702;8.618;2022-12-18T01:00:39;40.10;;;23.77;;
3217;SDS011;1621;49.702;8.618;2022-12-18T01:03:07;38.60;;;24.37;;
3217;SDS011;1621;49.702;8.618;2022-12-18T01:05:33;38.43;;;23.03;;
3217;SDS011;1621;49.702;8.618;2022-12-18T01:07:59;40.10;;;24.63;;
3217;SDS011;1621;49.702;8.618;2022-12-18T01:10:26;38.87;;;23.57;;
3217;SDS011;1621;49.702;8.618;2022-12-18T01:12:52;38.07;;;23.37;;
3217;SDS011;1621;49.702;8.618;2022-12-18T01:15:18;37.63;;;22.43;;
3217;SDS011;1621;49.702;8.618;2022-12-18T01:17:44;39.43;;;22.80;;
3217;SDS011;1621;49.702;8.618;2022-12-18T01:20:12;39.23;;;22.90;;
3217;SDS011;1621;49.702;8.618;2022-12-18T01:22:38;39.53;;;22.47;;
3217;SDS011;1621;49.702;8.618;2022-12-18T01:25:05;38.93;;;23.00;;
3217;SDS011;1621;49.702;8.618;2022-12-18T01:27:32;36.43;;;22.97;;
3217;SDS011;1621;49.702;8.618;2022-12-18T01:29:59;37.23;;;22.40;;
3217;SDS011;1621;49.702;8.618;2022-12-18T01:32:25;39.00;;;22.33;;
3217;SDS011;1621;49.702;8.618;2022-12-18T01:34:52;36.57;;;22.37;;
3217;SDS011;1621;49.702;8.618;2022-12-18T01:37:19;37.07;;;22.30;;
3217;SDS011;1621;49.702;8.618;2022-12-18T01:39:45;35.20;;;22.23;;
3217;SDS011;1621;49.702;8.618;2022-12-18T01:42:12;38.13;;;22.87;;
3217;SDS011;1621;49.702;8.618;2022-12-18T01:44:56;39.37;;;21.80;;
3217;SDS011;1621;49.702;8.618;2022-12-18T01:47:23;39.07;;;23.43;;
3217;SDS011;1621;49.702;8.618;2022-12-18T01:49:51;36.20;;;21.23;;
3217;SDS011;1621;49.702;8.618;2022-12-18T01:52:17;38.83;;;21.63;;
3217;SDS011;1621;49.702;8.618;2022-12-18T01:54:46;35.87;;;22.20;;
3217;SDS011;1621;49.702;8.618;2022-12-18T01:57:13;34.20;;;21.17;;
3217;SDS011;1621;49.702;8.618;2022-12-18T01:59:40;39.47;;;23.47;;
3217;SDS011;1621;49.702;8.618;2022-12-18T02:02:08;39.43;;;23.77;;
3217;SDS011;1621;49.702;8.618;2022-12-18T02:04:34;34.40;;;21.47;;
3217;SDS011;1621;49.702;8.618;2022-12-18T02:07:02;36.40;;;22.00;;
3217;SDS011;1621;49.702;8.618;2022-12-18T02:09:31;39.50;;;22.27;;
3217;SDS011;1621;49.702;8.618;2022-12-18T02:12:03;35.57;;;21.20;;
3217;SDS011;1621;49.702;8.618;2022-12-18T02:14:33;39.47;;;24.00;;
3217;SDS011;1621;49.702;8.618;2022-12-18T02:17:03;40.67;;;22.87;;
3217;SDS011;1621;49.702;8.618;2022-12-18T02:19:37;37.63;;;22.03;;
3217;SDS011;1621;49.702;8.618;2022-12-18T02:22:07;33.03;;;21.37;;
3217;SDS011;1621;49.702;8.618;2022-12-18T02:24:39;36.07;;;19.90;;
3217;SDS011;1621;49.702;8.618;2022-12-18T02:27:09;44.10;;;21.10;;
3217;SDS011;1621;49.702;8.618;2022-12-18T02:29:38;35.33;;;21.87;;
3217;SDS011;1621;49.702;8.618;2022-12-18T02:32:05;34.30;;;20.40;;
3217;SDS011;1621;49.702;8.618;2022-12-18T02:34:34;33.57;;;20.00;;
3217;SDS011;1621;49.702;8.618;2022-12-18T02:37:03;36.43;;;21.13;;
3217;SDS011;1621;49.702;8.618;2022-12-18T02:39:30;35.13;;;21.90;;
3217;SDS011;1621;49.702;8.618;2022-12-18T02:41:58;35.47;;;20.50;;
3217;SDS011;1621;49.702;8.618;2022-12-18T02:44:28;32.70;;;20.30;;
3217;SDS011;1621;49.702;8.618;2022-12-18T02:46:54;34.73;;;21.40;;
3217;SDS011;1621;49.702;8.618;2022-12-18T02:49:26;33.13;;;20.10;;
3217;SDS011;1621;49.702;8.618;2022-12-18T02:51:56;34.90;;;20.33;;
3217;SDS011;1621;49.702;8.618;2022-12-18T02:54:30;34.73;;;20.30;;
3217;SDS011;1621;49.702;8.618;2022-12-18T02:57:00;35.83;;;20.87;;
3217;SDS011;1621;49.702;8.618;2022-12-18T02:59:31;33.50;;;19.47;;
3217;SDS011;1621;49.702;8.618;2022-12-18T03:02:04;31.03;;;20.30;;
3217;SDS011;1621;49.702;8.618;2022-12-18T03:04:33;35.97;;;21.70;;
3217;SDS011;1621;49.702;8.618;2022-12-18T03:07:06;31.40;;;19.33;;
3217;SDS011;1621;49.702;8.618;2022-12-18T03:09:35;32.20;;;19.90;;
3217;SDS011;1621;49.702;8.618;2022-12-18T03:12:04;31.13;;;20.77;;
3217;SDS011;1621;49.702;8.618;2022-12-18T03:14:52;39.03;;;20.80;;
3217;SDS011;1621;49.702;8.618;2022-12-18T03:17:20;34.33;;;19.90;;
3217;SDS011;1621;49.702;8.618;2022-12-18T03:19:48;36.97;;;20.27;;
3217;SDS011;1621;49.702;8.618;2022-12-18T03:22:15;34.57;;;20.37;;
3217;SDS011;1621;49.702;8.618;2022-12-18T03:24:42;31.33;;;18.73;;
3217;SDS011;1621;49.702;8.618;2022-12-18T03:27:09;32.83;;;20.03;;
3217;SDS011;1621;49.702;8.618;2022-12-18T03:29:38;30.80;;;18.83;;
3217;SDS011;1621;49.702;8.618;2022-12-18T03:32:08;36.27;;;20.90;;
3217;SDS011;1621;49.702;8.618;2022-12-18T03:34:36;33.63;;;20.80;;
3217;SDS011;1621;49.702;8.618;2022-12-18T03:37:03;34.83;;;20.63;;
3217;SDS011;1621;49.702;8.618;2022-12-18T03:39:30;32.47;;;20.30;;
3217;SDS011;1621;49.702;8.618;2022-12-18T03:41:58;33.97;;;20.50;;
3217;SDS011;1621;49.702;8.618;2022-12-18T03:44:28;36.57;;;22.10;;
3217;SDS011;1621;49.702;8.618;2022-12-18T03:46:56;36.20;;;20.13;;
3217;SDS011;1621;49.702;8.618;2022-12-18T03:49:27;36.27;;;21.97;;
3217;SDS011;1621;49.702;8.618;2022-12-18T03:51:57;40.17;;;22.27;;
3217;SDS011;1621;49.702;8.618;2022-12-18T03:54:25;37.60;;;21.10;;
3217;SDS011;1621;49.702;8.618;2022-12-18T03:56:54;38.50;;;21.73;;
3217;SDS011;1621;49.702;8.618;2022-12-18T03:59:23;39.07;;;21.70;;
3217;SDS011;1621;49.702;8.618;2022-12-18T04:01:50;37.50;;;22.67;;
3217;SDS011;1621;49.702;8.618;2022-12-18T04:04:18;36.40;;;20.63;;
3217;SDS011;1621;49.702;8.618;2022-12-18T04:06:46;38.03;;;22.37;;
3217;SDS011;1621;49.702;8.618;2022-12-18T04:09:13;38.10;;;22.50;;
3217;SDS011;1621;49.702;8.618;2022-12-18T04:11:39;33.50;;;21.83;;
3217;SDS011;1621;49.702;8.618;2022-12-18T04:14:06;38.93;;;23.07;;
3217;SDS011;1621;49.702;8.618;2022-12-18T04:16:32;39.60;;;21.40;;
3217;SDS011;1621;49.702;8.618;2022-12-18T04:18:58;34.80;;;21.43;;
3217;SDS011;1621;49.702;8.618;2022-12-18T04:21:25;36.43;;;21.30;;
3217;SDS011;1621;49.702;8.618;2022-12-18T04:23:52;35.00;;;20.10;;
3217;SDS011;1621;49.702;8.618;2022-12-18T04:26:18;37.90;;;21.63;;
3217;SDS011;1621;49.702;8.618;2022-12-18T04:28:45;38.53;;;21.67;;
3217;SDS011;1621;49.702;8.618;2022-12-18T04:31:11;31.60;;;19.20;;
3217;SDS011;1621;49.702;8.618;2022-12-18T04:33:38;34.27;;;20.10;;
3217;SDS011;1621;49.702;8.618;2022-12-18T04:36:04;38.47;;;20.53;;
3217;SDS011;1621;49.702;8.618;2022-12-18T04:38:31;36.50;;;21.27;;
3217;SDS011;1621;49.702;8.618;2022-12-18T04:40:58;35.73;;;20.80;;
3217;SDS011;1621;49.702;8.618;2022-12-18T04:43:25;36.47;;;22.83;;
3217;SDS011;1621;49.702;8.618;2022-12-18T04:45:51;35.90;;;20.53;;
3217;SDS011;1621;49.702;8.618;2022-12-18T04:48:17;38.10;;;21.60;;
3217;SDS011;1621;49.702;8.618;2022-12-18T04:50:45;35.50;;;21.07;;
3217;SDS011;1621;49.702;8.618;2022-12-18T04:53:12;40.33;;;20.93;;
3217;SDS011;1621;49.702;8.618;2022-12-18T04:55:38;36.07;;;20.80;;
3217;SDS011;1621;49.702;8.618;2022-12-18T04:58:06;35.97;;;20.97;;
3217;SDS011;1621;49.702;8.618;2022-12-18T05:00:32;37.40;;;20.83;;
3217;SDS011;1621;49.702;8.618;2022-12-18T05:03:00;40.53;;;22.70;;
3217;SDS011;1621;49.702;8.618;2022-12-18T05:05:26;35.57;;;21.20;;
3217;SDS011;1621;49.702;8.618;2022-12-18T05:07:53;31.20;;;20.37;;
3217;SDS011;1621;49.702;8.618;2022-12-18T05:10:19;36.60;;;22.17;;
3217;SDS011;1621;49.702;8.618;2022-12-18T05:12:45;32.70;;;19.40;;
3217;SDS011;1621;49.702;8.618;2022-12-18T05:15:25;34.97;;;20.43;;
3217;SDS011;1621;49.702;8.618;2022-12-18T05:17:52;35.90;;;20.47;;
3217;SDS011;1621;49.702;8.618;2022-12-18T05:20:18;34.60;;;20.30;;
3217;SDS011;1621;49.702;8.618;2022-12-18T05:22:45;40.00;;;21.67;;
3217;SDS011;1621;49.702;8.618;2022-12-18T05:25:11;40.30;;;22.93;;
3217;SDS011;1621;49.702;8.618;2022-12-18T05:27:37;42.60;;;23.90;;
3217;SDS011;1621;49.702;8.618;2022-12-18T05:30:04;43.50;;;22.07;;
3217;SDS011;1621;49.702;8.618;2022-12-18T05:32:31;37.57;;;21.77;;
3217;SDS011;1621;49.702;8.618;2022-12-18T05:34:58;36.70;;;23.23;;
3217;SDS011;1621;49.702;8.618;2022-12-18T05:37:24;37.53;;;21.60;;
3217;SDS011;1621;49.702;8.618;2022-12-18T05:39:50;44.33;;;22.60;;
3217;SDS011;1621;49.702;8.618;2022-12-18T05:42:17;33.77;;;20.10;;
3217;SDS011;1621;49.702;8.618;2022-12-18T05:44:43;39.10;;;21.87;;
3217;SDS011;1621;49.702;8.618;2022-12-18T05:47:09;40.90;;;22.77;;
3217;SDS011;1621;49.702;8.618;2022-12-18T05:49:37;37.53;;;22.10;;
3217;SDS011;1621;49.702;8.618;2022-12-18T05:52:03;39.67;;;22.17;;
3217;SDS011;1621;49.702;8.618;2022-12-18T05:54:29;37.00;;;22.00;;
3217;SDS011;1621;49.702;8.618;2022-12-18T05:56:56;37.17;;;22.73;;
3217;SDS011;1621;49.702;8.618;2022-12-18T05:59:22;42.17;;;24.10;;
3217;SDS011;1621;49.702;8.618;2022-12-18T06:01:49;43.13;;;23.87;;
3217;SDS011;1621;49.702;8.618;2022-12-18T06:04:15;39.97;;;23.13;;
3217;SDS011;1621;49.702;8.618;2022-12-18T06:06:43;37.40;;;23.50;;
3217;SDS011;1621;49.702;8.618;2022-12-18T06:09:09;42.70;;;24.80;;
3217;SDS011;1621;49.702;8.618;2022-12-18T06:11:36;41.77;;;20.53;;
3217;SDS011;1621;49.702;8.618;2022-12-18T06:14:03;40.97;;;22.87;;
3217;SDS011;1621;49.702;8.618;2022-12-18T06:16:30;40.70;;;23.30;;
3217;SDS011;1621;49.702;8.618;2022-12-18T06:18:56;41.63;;;23.30;;
3217;SDS011;1621;49.702;8.618;2022-12-18T06:21:23;41.90;;;23.40;;
3217;SDS011;1621;49.702;8.618;2022-12-18T06:23:50;36.67;;;21.10;;
3217;SDS011;1621;49.702;8.618;2022-12-18T06:26:16;38.67;;;21.97;;
3217;SDS011;1621;49.702;8.618;2022-12-18T06:28:43;36.90;;;21.90;;
3217;SDS011;1621;49.702;8.618;2022-12-18T06:31:09;36.07;;;22.07;;
3217;SDS011;1621;49.702;8.618;2022-12-18T06:33:36;40.97;;;21.50;;
3217;SDS011;1621;49.702;8.618;2022-12-18T06:36:02;40.17;;;23.17;;
3217;SDS011;1621;49.702;8.618;2022-12-18T06:38:29;36.00;;;20.97;;
3217;SDS011;1621;49.702;8.618;2022-12-18T06:40:58;38.30;;;22.67;;
3217;SDS011;1621;49.702;8.618;2022-12-18T06:43:24;40.60;;;21.57;;
3217;SDS011;1621;49.702;8.618;2022-12-18T06:45:50;35.73;;;21.07;;
3217;SDS011;1621;49.702;8.618;2022-12-18T06:48:18;36.53;;;20.93;;
3217;SDS011;1621;49.702;8.618;2022-12-18T06:50:44;36.00;;;22.10;;
3217;SDS011;1621;49.702;8.618;2022-12-18T06:53:10;39.80;;;21.50;;
3217;SDS011;1621;49.702;8.618;2022-12-18T06:55:36;40.20;;;23.10;;
3217;SDS011;1621;49.702;8.618;2022-12-18T06:58:04;41.13;;;22.63;;
3217;SDS011;1621;49.702;8.618;2022-12-18T07:00:30;42.60;;;22.37;;
3217;SDS011;1621;49.702;8.618;2022-12-18T07:02:57;37.53;;;22.33;;
3217;SDS011;1621;49.702;8.618;2022-12-18T07:05:23;40.03;;;22.93;;
3217;SDS011;1621;49.702;8.618;2022-12-18T07:07:49;38.30;;;20.80;;
3217;SDS011;1621;49.702;8.618;2022-12-18T07:10:16;32.87;;;20.90;;
3217;SDS011;1621;49.702;8.618;2022-12-18T07:12:42;39.07;;;22.20;;
3217;SDS011;1621;49.702;8.618;2022-12-18T07:15:10;38.43;;;21.60;;
3217;SDS011;1621;49.702;8.618;2022-12-18T07:17:36;37.20;;;21.97;;
3217;SDS011;1621;49.702;8.618;2022-12-18T07:20:02;37.07;;;21.37;;
3217;SDS011;1621;49.702;8.618;2022-12-18T07:22:29;39.27;;;21.97;;
3217;SDS011;1621;49.702;8.618;2022-12-18T07:24:55;46.50;;;23.63;;
3217;SDS011;1621;49.702;8.618;2022-12-18T07:27:22;42.97;;;23.57;;
3217;SDS011;1621;49.702;8.618;2022-12-18T07:29:48;36.33;;;22.07;;
3217;SDS011;1621;49.702;8.618;2022-12-18T07:32:16;38.03;;;22.50;;
3217;SDS011;1621;49.702;8.618;2022-12-18T07:34:42;37.63;;;22.50;;
3217;SDS011;1621;49.702;8.618;2022-12-18T07:37:08;41.83;;;23.67;;
3217;SDS011;1621;49.702;8.618;2022-12-18T07:39:35;38.20;;;23.03;;
3217;SDS011;1621;49.702;8.618;2022-12-18T07:42:01;44.77;;;25.73;;
3217;SDS011;1621;49.702;8.618;2022-12-18T07:44:45;35.00;;;21.67;;
3217;SDS011;1621;49.702;8.618;2022-12-18T07:47:11;33.23;;;20.60;;
3217;SDS011;1621;49.702;8.618;2022-12-18T07:49:39;31.23;;;19.20;;
3217;SDS011;1621;49.702;8.618;2022-12-18T07:52:05;31.70;;;18.10;;
3217;SDS011;1621;49.702;8.618;2022-12-18T07:54:31;32.40;;;20.30;;
3217;SDS011;1621;49.702;8.618;2022-12-18T07:56:58;38.60;;;21.97;;
3217;SDS011;1621;49.702;8.618;2022-12-18T07:59:24;34.97;;;21.03;;
3217;SDS011;1621;49.702;8.618;2022-12-18T08:01:50;35.90;;;22.53;;
3217;SDS011;1621;49.702;8.618;2022-12-18T08:04:16;39.87;;;21.37;;
3217;SDS011;1621;49.702;8.618;2022-12-18T08:06:44;35.23;;;21.97;;
3217;SDS011;1621;49.702;8.618;2022-12-18T08:09:11;35.27;;;21.40;;
3217;SDS011;1621;49.702;8.618;2022-12-18T08:11:37;35.90;;;22.83;;
3217;SDS011;1621;49.702;8.618;2022-12-18T08:14:03;38.53;;;22.03;;
3217;SDS011;1621;49.702;8.618;2022-12-18T08:16:30;34.73;;;20.40;;
3217;SDS011;1621;49.702;8.618;2022-12-18T08:18:56;35.90;;;21.80;;
3217;SDS011;1621;49.702;8.618;2022-12-18T08:21:23;37.07;;;21.13;;
3217;SDS011;1621;49.702;8.618;2022-12-18T08:23:52;39.10;;;21.60;;
3217;SDS011;1621;49.702;8.618;2022-12-18T08:26:19;39.10;;;23.47;;
3217;SDS011;1621;49.702;8.618;2022-12-18T08:28:46;38.70;;;23.27;;
3217;SDS011;1621;49.702;8.618;2022-12-18T08:31:12;38.40;;;23.40;;
3217;SDS011;1621;49.702;8.618;2022-12-18T08:33:40;44.40;;;20.73;;
3217;SDS011;1621;49.702;8.618;2022-12-18T08:36:06;34.73;;;21.00;;
3217;SDS011;1621;49.702;8.618;2022-12-18T08:38:34;38.97;;;21.00;;
3217;SDS011;1621;49.702;8.618;2022-12-18T08:41:02;39.47;;;22.20;;
3217;SDS011;1621;49.702;8.618;2022-12-18T08:43:29;35.90;;;22.30;;
3217;SDS011;1621;49.702;8.618;2022-12-18T08:46:16;41.30;;;24.53;;
3217;SDS011;1621;49.702;8.618;2022-12-18T08:48:42;40.63;;;24.87;;
3217;SDS011;1621;49.702;8.618;2022-12-18T08:51:09;43.10;;;25.67;;
3217;SDS011;1621;49.702;8.618;2022-12-18T08:53:36;43.47;;;25.37;;
3217;SDS011;1621;49.702;8.618;2022-12-18T08:56:04;40.80;;;24.73;;
3217;SDS011;1621;49.702;8.618;2022-12-18T08:58:31;40.47;;;22.97;;
3217;SDS011;1621;49.702;8.618;2022-12-18T09:00:59;44.30;;;25.07;;
3217;SDS011;1621;49.702;8.618;2022-12-18T09:03:25;39.33;;;24.97;;
3217;SDS011;1621;49.702;8.618;2022-12-18T09:05:51;44.40;;;25.37;;
3217;SDS011;1621;49.702;8.618;2022-12-18T09:08:18;38.93;;;23.20;;
3217;SDS011;1621;49.702;8.618;2022-12-18T09:10:44;38.13;;;23.60;;
3217;SDS011;1621;49.702;8.618;2022-12-18T09:13:12;40.97;;;24.00;;
3217;SDS011;1621;49.702;8.618;2022-12-18T09:15:42;37.87;;;24.00;;
3217;SDS011;1621;49.702;8.618;2022-12-18T09:18:10;42.53;;;25.40;;
3217;SDS011;1621;49.702;8.618;2022-12-18T09:20:37;45.57;;;27.30;;
3217;SDS011;1621;49.702;8.618;2022-12-18T09:23:03;43.60;;;26.60;;
3217;SDS011;1621;49.702;8.618;2022-12-18T09:25:30;42.03;;;27.27;;
3217;SDS011;1621;49.702;8.618;2022-12-18T09:27:58;36.60;;;23.93;;
3217;SDS011;1621;49.702;8.618;2022-12-18T09:30:25;47.77;;;26.90;;
3217;SDS011;1621;49.702;8.618;2022-12-18T09:32:52;39.87;;;26.23;;
3217;SDS011;1621;49.702;8.618;2022-12-18T09:35:18;48.20;;;28.17;;
3217;SDS011;1621;49.702;8.618;2022-12-18T09:37:44;42.47;;;23.10;;
3217;SDS011;1621;49.702;8.618;2022-12-18T09:40:12;40.07;;;24.10;;
3217;SDS011;1621;49.702;8.618;2022-12-18T09:42:39;47.67;;;26.63;;
3217;SDS011;1621;49.702;8.618;2022-12-18T09:45:07;41.27;;;24.63;;
3217;SDS011;1621;49.702;8.618;2022-12-18T09:47:39;40.83;;;24.30;;
3217;SDS011;1621;49.702;8.618;2022-12-18T09:50:06;40.80;;;25.77;;
3217;SDS011;1621;49.702;8.618;2022-12-18T09:52:41;45.37;;;26.60;;
3217;SDS011;1621;49.702;8.618;2022-12-18T09:55:10;44.70;;;26.33;;
3217;SDS011;1621;49.702;8.618;2022-12-18T09:57:39;44.70;;;27.27;;
3217;SDS011;1621;49.702;8.618;2022-12-18T10:00:11;38.10;;;24.70;;
3217;SDS011;1621;49.702;8.618;2022-12-18T10:02:42;39.40;;;25.90;;
3217;SDS011;1621;49.702;8.618;2022-12-18T10:05:10;41.33;;;23.30;;
3217;SDS011;1621;49.702;8.618;2022-12-18T10:07:43;44.00;;;26.00;;
3217;SDS011;1621;49.702;8.618;2022-12-18T10:10:14;43.37;;;25.43;;
3217;SDS011;1621;49.702;8.618;2022-12-18T10:12:45;40.13;;;26.53;;
3217;SDS011;1621;49.702;8.618;2022-12-18T10:15:13;47.67;;;26.90;;
3217;SDS011;1621;49.702;8.618;2022-12-18T10:17:44;41.10;;;24.80;;
3217;SDS011;1621;49.702;8.618;2022-12-18T10:20:13;40.23;;;26.03;;
3217;SDS011;1621;49.702;8.618;2022-12-18T10:22:42;44.03;;;26.67;;
3217;SDS011;1621;49.702;8.618;2022-12-18T10:25:15;48.13;;;27.43;;
3217;SDS011;1621;49.702;8.618;2022-12-18T10:27:43;43.50;;;26.03;;
3217;SDS011;1621;49.702;8.618;2022-12-18T10:30:12;47.57;;;27.03;;
3217;SDS011;1621;49.702;8.618;2022-12-18T10:32:39;48.13;;;25.97;;
3217;SDS011;1621;49.702;8.618;2022-12-18T10:35:09;42.93;;;25.43;;
3217;SDS011;1621;49.702;8.618;2022-12-18T10:37:39;41.77;;;25.30;;
3217;SDS011;1621;49.702;8.618;2022-12-18T10:40:25;47.97;;;27.30;;
3217;SDS011;1621;49.702;8.618;2022-12-18T10:43:02;46.80;;;26.40;;
3217;SDS011;1621;49.702;8.618;2022-12-18T10:45:29;42.43;;;26.13;;
3217;SDS011;1621;49.702;8.618;2022-12-18T10:47:55;44.73;;;26.00;;
3217;SDS011;1621;49.702;8.618;2022-12-18T10:50:24;49.37;;;27.40;;
3217;SDS011;1621;49.702;8.618;2022-12-18T10:52:53;51.13;;;30.00;;
3217;SDS011;1621;49.702;8.618;2022-12-18T10:55:20;46.53;;;26.60;;
3217;SDS011;1621;49.702;8.618;2022-12-18T10:57:47;44.73;;;27.23;;
3217;SDS011;1621;49.702;8.618;2022-12-18T11:00:20;47.17;;;27.43;;
3217;SDS011;1621;49.702;8.618;2022-12-18T11:02:47;46.87;;;27.20;;
3217;SDS011;1621;49.702;8.618;2022-12-18T11:05:25;49.60;;;27.70;;
3217;SDS011;1621;49.702;8.618;2022-12-18T11:07:52;48.47;;;27.73;;
3217;SDS011;1621;49.702;8.618;2022-12-18T11:10:20;42.73;;;26.63;;
3217;SDS011;1621;49.702;8.618;2022-12-18T11:12:46;51.40;;;28.93;;
3217;SDS011;1621;49.702;8.618;2022-12-18T11:15:15;49.67;;;28.90;;
3217;SDS011;1621;49.702;8.618;2022-12-18T11:17:41;45.17;;;27.90;;
3217;SDS011;1621;49.702;8.618;2022-12-18T11:20:26;47.20;;;29.10;;
3217;SDS011;1621;49.702;8.618;2022-12-18T11:22:58;49.43;;;28.30;;
3217;SDS011;1621;49.702;8.618;2022-12-18T11:25:24;49.50;;;28.63;;
3217;SDS011;1621;49.702;8.618;2022-12-18T11:27:55;43.40;;;26.50;;
3217;SDS011;1621;49.702;8.618;2022-12-18T11:30:22;45.70;;;26.90;;
3217;SDS011;1621;49.702;8.618;2022-12-18T11:32:49;46.87;;;27.87;;
3217;SDS011;1621;49.702;8.618;2022-12-18T11:35:17;45.83;;;27.97;;
3217;SDS011;1621;49.702;8.618;2022-12-18T11:37:46;45.37;;;26.17;;
3217;SDS011;1621;49.702;8.618;2022-12-18T11:40:15;45.03;;;27.37;;
3217;SDS011;1621;49.702;8.618;2022-12-18T11:42:45;47.77;;;29.23;;
3217;SDS011;1621;49.702;8.618;2022-12-18T11:45:24;46.50;;;29.23;;
3217;SDS011;1621;49.702;8.618;2022-12-18T11:47:52;44.77;;;26.33;;
3217;SDS011;1621;49.702;8.618;2022-12-18T11:50:21;45.50;;;28.10;;
3217;SDS011;1621;49.702;8.618;2022-12-18T11:52:50;45.70;;;27.97;;
3217;SDS011;1621;49.702;8.618;2022-12-18T11:55:19;49.83;;;29.70;;
3217;SDS011;1621;49.702;8.618;2022-12-18T11:57:49;43.73;;;27.00;;
3217;SDS011;1621;49.702;8.618;2022-12-18T12:00:19;47.03;;;26.90;;
3217;SDS011;1621;49.702;8.618;2022-12-18T12:02:51;48.10;;;29.27;;
3217;SDS011;1621;49.702;8.618;2022-12-18T12:05:29;47.33;;;28.60;;
3217;SDS011;1621;49.702;8.618;2022-12-18T12:07:59;47.93;;;30.13;;
3217;SDS011;1621;49.702;8.618;2022-12-18T12:10:31;53.30;;;29.57;;
3217;SDS011;1621;49.702;8.618;2022-12-18T12:13:08;50.50;;;29.13;;
3217;SDS011;1621;49.702;8.618;2022-12-18T12:15:40;43.23;;;25.63;;
3217;SDS011;1621;49.702;8.618;2022-12-18T12:18:16;50.47;;;28.37;;
3217;SDS011;1621;49.702;8.618;2022-12-18T12:20:49;47.60;;;28.17;;
3217;SDS011;1621;49.702;8.618;2022-12-18T12:23:19;47.50;;;28.93;;
3217;SDS011;1621;49.702;8.618;2022-12-18T12:25:49;44.70;;;28.00;;
3217;SDS011;1621;49.702;8.618;2022-12-18T12:28:19;47.93;;;29.33;;
3217;SDS011;1621;49.702;8.618;2022-12-18T12:30:52;54.17;;;30.97;;
3217;SDS011;1621;49.702;8.618;2022-12-18T12:33:26;50.10;;;28.50;;
3217;SDS011;1621;49.702;8.618;2022-12-18T12:35:58;48.53;;;29.17;;
3217;SDS011;1621;49.702;8.618;2022-12-18T12:38:27;50.00;;;29.67;;
3217;SDS011;1621;49.702;8.618;2022-12-18T12:40:56;44.73;;;27.90;;
3217;SDS011;1621;49.702;8.618;2022-12-18T12:43:27;57.57;;;33.50;;
3217;SDS011;1621;49.702;8.618;2022-12-18T12:45:55;49.37;;;30.60;;
3217;SDS011;1621;49.702;8.618;2022-12-18T12:48:32;46.47;;;30.40;;
3217;SDS011;1621;49.702;8.618;2022-12-18T12:51:00;44.23;;;26.70;;
3217;SDS011;1621;49.702;8.618;2022-12-18T12:53:29;47.00;;;27.67;;
3217;SDS011;1621;49.702;8.618;2022-12-18T12:55:57;46.40;;;27.90;;
3217;SDS011;1621;49.702;8.618;2022-12-18T12:58:26;45.73;;;31.60;;
3217;SDS011;1621;49.702;8.618;2022-12-18T13:00:58;40.70;;;26.80;;
3217;SDS011;1621;49.702;8.618;2022-12-18T13:03:29;39.80;;;25.33;;
3217;SDS011;1621;49.702;8.618;2022-12-18T13:06:00;41.93;;;27.73;;
3217;SDS011;1621;49.702;8.618;2022-12-18T13:08:30;38.97;;;26.50;;
3217;SDS011;1621;49.702;8.618;2022-12-18T13:10:58;41.50;;;26.60;;
3217;SDS011;1621;49.702;8.618;2022-12-18T13:13:47;43.20;;;28.80;;
3217;SDS011;1621;49.702;8.618;2022-12-18T13:16:14;47.37;;;28.33;;
3217;SDS011;1621;49.702;8.618;2022-12-18T13:18:47;45.90;;;26.80;;
3217;SDS011;1621;49.702;8.618;2022-12-18T13:21:16;46.43;;;28.00;;
3217;SDS011;1621;49.702;8.618;2022-12-18T13:23:46;48.47;;;27.40;;
3217;SDS011;1621;49.702;8.618;2022-12-18T13:26:30;45.07;;;28.67;;
3217;SDS011;1621;49.702;8.618;2022-12-18T13:28:58;45.60;;;29.80;;
3217;SDS011;1621;49.702;8.618;2022-12-18T13:34:14;45.50;;;28.20;;
3217;SDS011;1621;49.702;8.618;2022-12-18T13:36:41;46.37;;;28.63;;
3217;SDS011;1621;49.702;8.618;2022-12-18T13:39:21;50.60;;;29.10;;
3217;SDS011;1621;49.702;8.618;2022-12-18T13:41:49;47.90;;;29.47;;
3217;SDS011;1621;49.702;8.618;2022-12-18T13:44:23;47.90;;;31.27;;
3217;SDS011;1621;49.702;8.618;2022-12-18T13:46:50;47.70;;;29.57;;
3217;SDS011;1621;49.702;8.618;2022-12-18T13:49:20;45.77;;;29.60;;
3217;SDS011;1621;49.702;8.618;2022-12-18T13:51:48;49.33;;;31.47;;
3217;SDS011;1621;49.702;8.618;2022-12-18T13:54:17;44.63;;;28.00;;
3217;SDS011;1621;49.702;8.618;2022-12-18T13:56:45;42.37;;;28.80;;
3217;SDS011;1621;49.702;8.618;2022-12-18T13:59:14;47.87;;;30.23;;
3217;SDS011;1621;49.702;8.618;2022-12-18T14:01:41;47.80;;;29.13;;
3217;SDS011;1621;49.702;8.618;2022-12-18T14:04:08;48.10;;;30.57;;
3217;SDS011;1621;49.702;8.618;2022-12-18T14:06:35;43.77;;;28.47;;
3217;SDS011;1621;49.702;8.618;2022-12-18T14:09:01;51.27;;;30.13;;
3217;SDS011;1621;49.702;8.618;2022-12-18T14:11:28;43.13;;;27.33;;
3217;SDS011;1621;49.702;8.618;2022-12-18T14:13:55;43.83;;;27.80;;
3217;SDS011;1621;49.702;8.618;2022-12-18T14:16:23;42.97;;;28.70;;
3217;SDS011;1621;49.702;8.618;2022-12-18T14:18:51;43.60;;;27.90;;
3217;SDS011;1621;49.702;8.618;2022-12-18T14:21:21;46.17;;;29.70;;
3217;SDS011;1621;49.702;8.618;2022-12-18T14:23:47;41.53;;;27.30;;
3217;SDS011;1621;49.702;8.618;2022-12-18T14:26:21;43.60;;;28.27;;
3217;SDS011;1621;49.702;8.618;2022-12-18T14:28:47;44.90;;;28.20;;
3217;SDS011;1621;49.702;8.618;2022-12-18T14:31:17;48.03;;;27.40;;
3217;SDS011;1621;49.702;8.618;2022-12-18T14:33:44;42.63;;;27.73;;
3217;SDS011;1621;49.702;8.618;2022-12-18T14:36:13;40.57;;;27.80;;
3217;SDS011;1621;49.702;8.618;2022-12-18T14:38:40;46.40;;;29.10;;
3217;SDS011;1621;49.702;8.618;2022-12-18T14:41:10;46.17;;;28.50;;
3217;SDS011;1621;49.702;8.618;2022-12-18T14:43:37;43.47;;;26.43;;
3217;SDS011;1621;49.702;8.618;2022-12-18T14:46:04;47.73;;;29.37;;
3217;SDS011;1621;49.702;8.618;2022-12-18T14:48:35;45.63;;;28.93;;
3217;SDS011;1621;49.702;8.618;2022-12-18T14:51:04;46.07;;;28.90;;
3217;SDS011;1621;49.702;8.618;2022-12-18T14:53:35;42.57;;;28.50;;
3217;SDS011;1621;49.702;8.618;2022-12-18T14:56:02;46.70;;;29.73;;
3217;SDS011;1621;49.702;8.618;2022-12-18T14:58:29;49.33;;;29.37;;